Alhandra, Brazil
Current Conditions -  °F | °C
As of 1:00 AM on Friday 21 Nov 2014 (Local Time) from SBJP Reporting Station
Light Rain Light Rain  
Wind Chill: 75°   Ceiling: 500
Heat Index: 75°   Visibility: 6mi
Dew Point: 72°   Wind: 10mph
Humidity: 89%   Direction: 80°E
Pressure: 29.91"   Gusts: NA
Location:  7.44°S, 34.91°W
Report Text: SBJP 210400Z 08009KT 060V140 9000 -RA BKN005 BKN010 24/22 Q1013 RERA
Loading
Personal Weather Stations






























Interactive Weather Map New forecast layout! Learn more

10-Day Weather Forecast

Advertisements
Track Severe Weather on mobile